Forest fire From: 19-07-2018 20:00 Until: 20-07-2018 16:00 warning for: Forest fire Level: Yellow info button
suomi:
Metsäpalovaroitus on voimassa.

svenska:
Varning för skogsbrand gäller.

english:
A forest fire warning is in force. 

Extreme high temperature From: 19-07-2018 20:00 Until: 23:00 warning for: Extreme high temperature Level: Yellow info button
suomi:
Hellevaroitus: Lähivuorokauden aikana on odotettavissa tukalaa hellettä.

svenska:
Varning för värmebölja: Under det närmaste dygnet är den svåra hettan att vänta.

english:
Heat wave warning: Warm weather is expected during the coming 24 hours. 


Thunder radar more information blitzortung!


Löydät sääaseman tiedot myös:

European Weather Network

Finland Weather Exchange

Weather Underground

AWEKAS



Weather Underground säähistoriasivu

Päivittäin yhteenveto Kesäkuu 7, 2017 Yksiköt:  Metriset    Englantilaiset   Molemmat
« Edellinen Päivä
Seuraava Päivä »
Päivittäin Viikoittain Kuukausittain Vuosittain Mukautettu
  Korkea: Matala: Keskiarvo:
Lämpötila: -17.8 °C -12.7 °C -7.4 °C
Kastepiste: -17.8 °C -13.3 °C -12.5 °C
Kosteus: Humidity % 35 % 58 %
Tuulen nopeus: 0 km/h 0 km/h 1.9 km/h
Tuulenpuuska: 0 km/h - -
Tuuli:- - SE
Ilmanpaine: 0 hPa 34256.2 hPa -
Sade: 0 mm    
Historical Graphs
 
 
Taulukkotiedot Kesäkuu 7, 2017
Aika Lämpötila Kastepiste Ilmanpaine Tuuli Tuulen nopeus Tuulenpuuska Kosteus Sademäärä (tunneittain)
-17.8 °C -17.8 °C 0 hPa Calm     Humidity % 0 mm
00:00 -12.7 °C -13 °C 34405.1 hPa Calm     96 % 0 mm
00:15 -12.4 °C -12.6 °C 34405.1 hPa Calm     97 % 0 mm
00:30 -12.1 °C -12.4 °C 34405.1 hPa Calm     96 % 0 mm
00:45 -11.6 °C -12 °C 34405.1 hPa Calm     95 % 0 mm
01:00 -11.1 °C -11.7 °C 34405.1 hPa Calm     93 % 0 mm
01:15 -10.6 °C -11.5 °C 34405.1 hPa Calm     90 % 0 mm
01:30 -9.9 °C -11.2 °C 34405.1 hPa Calm   2.6 km/h 86 % 0 mm
01:45 -9.1 °C -11.2 °C 34405.1 hPa Calm     78 % 0 mm
02:00 -8.3 °C -11.2 °C 34395 hPa Calm   2.6 km/h 72 % 0 mm
02:15 -7.6 °C -11.1 °C 34384.8 hPa Calm   2.6 km/h 67 % 0 mm
02:30 -7.2 °C -11.3 °C 34395 hPa Calm   5.1 km/h 62 % 0 mm
02:45 -6.8 °C -11.6 °C 34384.8 hPa Calm   10.3 km/h 58 % 0 mm
03:00 -6.5 °C -11.3 °C 34384.8 hPa Calm   10.3 km/h 58 % 0 mm
03:15 -6.3 °C -11.6 °C 34384.8 hPa Calm   10.3 km/h 55 % 0 mm
03:30 -6.2 °C -11.7 °C 34384.8 hPa South 2.6 km/h 15.6 km/h 53 % 0 mm
03:45 -6.1 °C -12.1 °C 34384.8 hPa SSE 5.1 km/h 20.8 km/h 50 % 0 mm
04:00 -6.1 °C -12.2 °C 34384.8 hPa South 5.1 km/h 15.6 km/h 49 % 0 mm
04:15 -6 °C -12.4 °C 34371.3 hPa South 5.1 km/h 23.3 km/h 48 % 0 mm
04:30 -5.8 °C -11.7 °C 34371.3 hPa NNE 2.6 km/h 12.9 km/h 51 % 0 mm
04:45 -5.3 °C -11.7 °C 34361.1 hPa Calm   12.9 km/h 48 % 0 mm
05:00 -5.3 °C -11.7 °C 34361.1 hPa NE 2.6 km/h 10.3 km/h 48 % 0 mm
05:15 -5.3 °C -12.5 °C 34361.1 hPa South 2.6 km/h 28.5 km/h 44 % 0 mm
05:30 -5.1 °C -11.7 °C 34347.6 hPa East 2.6 km/h 20.8 km/h 47 % 0 mm
05:45 -4.8 °C -11.8 °C 34347.6 hPa South 2.6 km/h 12.9 km/h 45 % 0 mm
06:00 -4.9 °C -12.3 °C 34337.4 hPa South 7.7 km/h 28.5 km/h 43 % 0 mm
06:15 -4.8 °C -12.4 °C 34337.4 hPa ENE 2.6 km/h 12.9 km/h 42 % 0 mm
06:30 -4.6 °C -12.2 °C 34327.3 hPa South 2.6 km/h 12.9 km/h 42 % 0 mm
06:45 -4.3 °C -11.7 °C 34327.3 hPa NE 2.6 km/h 20.8 km/h 43 % 0 mm
07:00 -4.3 °C -12.7 °C 34313.7 hPa SSE 5.1 km/h 25.9 km/h 38 % 0 mm
07:15 -4.2 °C -12.7 °C 34313.7 hPa ESE 2.6 km/h 23.3 km/h 38 % 0 mm
07:30 -4.1 °C -12.3 °C 34313.7 hPa ESE 5.1 km/h 20.8 km/h 39 % 0 mm
07:45 -4 °C -12.9 °C 34303.6 hPa SSE 2.6 km/h 15.6 km/h 36 % 0 mm
08:00 -4.1 °C -12.6 °C 34303.6 hPa SE 5.1 km/h 23.3 km/h 38 % 0 mm
08:15 -3.9 °C -12.9 °C 34303.6 hPa SE 7.7 km/h 31.1 km/h 36 % 0 mm
08:30 -4.3 °C -12.3 °C 34303.6 hPa ENE 5.1 km/h 18.2 km/h 40 % 0 mm
08:45 -3.9 °C -12.8 °C 34293.4 hPa SE 7.7 km/h 44.1 km/h 36 % 0 mm
09:00 -3.7 °C -12.7 °C 34293.4 hPa SE 5.1 km/h 25.9 km/h 36 % 0 mm
09:15 -3.7 °C -12.2 °C 34293.4 hPa SSE 10.3 km/h 31.1 km/h 38 % 0 mm
09:30 -3.6 °C -12.6 °C 34293.4 hPa SSE 7.7 km/h 23.3 km/h 36 % 0 mm
09:45 -3.9 °C -13.1 °C 34279.9 hPa SSE 7.7 km/h 33.6 km/h 35 % 0 mm
10:00 -3.8 °C -12.7 °C 34279.9 hPa SE 5.1 km/h 18.2 km/h 36 % 0 mm
10:15 -4 °C -12.7 °C 34279.9 hPa ESE 5.1 km/h 15.6 km/h 37 % 0 mm
10:30 -4 °C -12.5 °C 34269.7 hPa SE 5.1 km/h 31.1 km/h 38 % 0 mm
10:45 -4 °C -12.7 °C 34269.7 hPa East 5.1 km/h 18.2 km/h 37 % 0 mm
11:00 -4.1 °C -12.6 °C 34269.7 hPa SE 5.1 km/h 25.9 km/h 38 % 0 mm
11:15 -4.7 °C -12.5 °C 34269.7 hPa ESE 2.6 km/h 15.6 km/h 41 % 0 mm
11:30 -4.6 °C -12.4 °C 34269.7 hPa ESE 2.6 km/h 25.9 km/h 41 % 0 mm
11:45 -4.3 °C -12.3 °C 34256.2 hPa SSE 5.1 km/h 20.8 km/h 40 % 0 mm
12:00 -4.7 °C -12.3 °C 34256.2 hPa SE 2.6 km/h 18.2 km/h 42 % 0 mm
12:15 -4.6 °C -12.4 °C 34256.2 hPa ESE 2.6 km/h 20.8 km/h 41 % 0 mm
12:30 -4.5 °C -11.9 °C 34256.2 hPa SSE 5.1 km/h 23.3 km/h 43 % 0 mm
12:45 -4.5 °C -12.3 °C 34256.2 hPa SE 2.6 km/h 28.5 km/h 41 % 0 mm
13:00 -4.8 °C -12.6 °C 34256.2 hPa ESE 2.6 km/h 15.6 km/h 41 % 0 mm
13:30 -5.2 °C -12.6 °C 34269.7 hPa ESE 2.6 km/h 36.2 km/h 43 % 0 mm
13:45 -5.4 °C -12.3 °C 34269.7 hPa East 2.6 km/h 15.6 km/h 45 % 0 mm
14:00 -5.6 °C -12.6 °C 34269.7 hPa East 2.6 km/h 15.6 km/h 45 % 0 mm
14:15 -5.8 °C -12.6 °C 34269.7 hPa Calm   18.2 km/h 46 % 0 mm
14:30 -6.1 °C -12.6 °C 34269.7 hPa Calm   12.9 km/h 47 % 0 mm
14:45 -6.3 °C -12.3 °C 34269.7 hPa Calm   5.1 km/h 50 % 0 mm
15:00 -6.6 °C -12.3 °C 34269.7 hPa Calm   7.7 km/h 51 % 0 mm
15:15 -6.7 °C -12.2 °C 34269.7 hPa Calm   12.9 km/h 53 % 0 mm
15:30 -6.9 °C -12.2 °C 34269.7 hPa Calm   2.6 km/h 54 % 0 mm
15:45 -7.1 °C -12.4 °C 34269.7 hPa Calm   5.1 km/h 54 % 0 mm
16:00 -7.3 °C -12.5 °C 34279.9 hPa Calm     55 % 0 mm
16:15 -7.6 °C -12.4 °C 34279.9 hPa Calm     57 % 0 mm
16:30 -7.8 °C -12.3 °C 34279.9 hPa Calm   2.6 km/h 59 % 0 mm
16:45 -8 °C -12.4 °C 34279.9 hPa Calm     60 % 0 mm
17:00 -8.1 °C -12.4 °C 34279.9 hPa Calm     60 % 0 mm
17:15 -8.3 °C -12.3 °C 34293.4 hPa Calm     62 % 0 mm
17:30 -8.6 °C -12.5 °C 34293.4 hPa Calm     63 % 0 mm
17:45 -9.1 °C -12.6 °C 34293.4 hPa Calm     66 % 0 mm
18:00 -9.6 °C -12.6 °C 34279.9 hPa Calm     70 % 0 mm
18:15 -10 °C -12.7 °C 34279.9 hPa Calm     73 % 0 mm
18:30 -10.4 °C -12.7 °C 34279.9 hPa Calm     76 % 0 mm
18:45 -10.8 °C -13 °C 34279.9 hPa Calm     77 % 0 mm
19:00 -11 °C -13 °C 34279.9 hPa Calm     79 % 0 mm
19:15 -11.2 °C -13.1 °C 34279.9 hPa Calm     79 % 0 mm
19:30 -11.4 °C -13.2 °C 34279.9 hPa Calm     81 % 0 mm
19:45 -11.5 °C -13.2 °C 34279.9 hPa Calm     82 % 0 mm
20:00 -11.7 °C -13.3 °C 34279.9 hPa Calm     82 % 0 mm
20:15 -11.8 °C -13.3 °C 34279.9 hPa Calm     83 % 0 mm
20:30 -11.7 °C -13.2 °C 34279.9 hPa Calm     83 % 0 mm
20:45 -11.7 °C -13.2 °C 34279.9 hPa Calm     83 % 0 mm
21:00 -11.7 °C -13.3 °C 34279.9 hPa Calm     83 % 0 mm
21:15 -11.8 °C -13.2 °C 34293.4 hPa Calm     84 % 0 mm
21:30 -11.4 °C -13.1 °C 34293.4 hPa Calm     81 % 0 mm
21:45 -11.5 °C -13.1 °C 34293.4 hPa Calm     82 % 0 mm
22:00 -11.6 °C -13.2 °C 34293.4 hPa Calm     82 % 0 mm
22:15 -11.4 °C -13.1 °C 34293.4 hPa Calm     82 % 0 mm
22:30 -11.2 °C -12.8 °C 34293.4 hPa Calm   2.6 km/h 82 % 0 mm
22:45 -10.7 °C -12.8 °C 34279.9 hPa Calm   5.1 km/h 78 % 0 mm
23:00 -10.2 °C -12.7 °C 34279.9 hPa Calm   12.9 km/h 74 % 0 mm
23:15 -9.8 °C -12.7 °C 34279.9 hPa Calm   12.9 km/h 71 % 0 mm
23:30 -9.5 °C -12.5 °C 34279.9 hPa SSE 2.6 km/h 12.9 km/h 70 % 0 mm
Esan sääasema
Terveisin Weather Underground - 2.75 mb

Alkuperäinen skripti  Jim McMurry - jmcmurry@mwt.net Sovitettu myös templatelle  Wim van der Kuil - Leuven-Template.eu

Laitteet joita käytämme:

Sääasema
Davis VP2

Sääasemaohjelma
Cumulus

Sääaseman tietokone
Asus EeePC

Palveluntarjoaja
Suncomet

Davis VP2

Cumulus

Asus EeePC

Suncomet